sensor_id;sensor_type;location;lat;lon;timestamp;temperature;humidity
30308;DHT22;17114;52.314;8.910;2022-12-13T00:01:56;-7.00;99.90
30308;DHT22;17114;52.314;8.910;2022-12-13T00:04:24;-7.00;99.90
30308;DHT22;17114;52.314;8.910;2022-12-13T00:06:54;-7.00;99.90
30308;DHT22;17114;52.314;8.910;2022-12-13T00:09:21;-7.00;99.90
30308;DHT22;17114;52.314;8.910;2022-12-13T00:11:49;-7.00;99.90
30308;DHT22;17114;52.314;8.910;2022-12-13T00:14:16;-7.00;99.90
30308;DHT22;17114;52.314;8.910;2022-12-13T00:16:45;-7.00;99.90
30308;DHT22;17114;52.314;8.910;2022-12-13T00:19:13;-7.00;99.90
30308;DHT22;17114;52.314;8.910;2022-12-13T00:21:40;-7.00;99.90
30308;DHT22;17114;52.314;8.910;2022-12-13T00:24:07;-7.10;99.90
30308;DHT22;17114;52.314;8.910;2022-12-13T00:26:34;-7.00;99.90
30308;DHT22;17114;52.314;8.910;2022-12-13T00:29:03;-7.00;99.90
30308;DHT22;17114;52.314;8.910;2022-12-13T00:31:31;-7.10;99.90
30308;DHT22;17114;52.314;8.910;2022-12-13T00:34:18;-7.10;99.90
30308;DHT22;17114;52.314;8.910;2022-12-13T00:36:45;-7.10;99.90
30308;DHT22;17114;52.314;8.910;2022-12-13T00:39:12;-7.10;99.90
30308;DHT22;17114;52.314;8.910;2022-12-13T00:41:43;-7.20;99.90
30308;DHT22;17114;52.314;8.910;2022-12-13T00:44:12;-7.20;99.90
30308;DHT22;17114;52.314;8.910;2022-12-13T00:46:40;-7.20;99.90
30308;DHT22;17114;52.314;8.910;2022-12-13T00:49:09;-7.20;99.90
30308;DHT22;17114;52.314;8.910;2022-12-13T00:51:37;-7.20;99.90
30308;DHT22;17114;52.314;8.910;2022-12-13T00:54:09;-7.20;99.90
30308;DHT22;17114;52.314;8.910;2022-12-13T00:56:36;-7.20;99.90
30308;DHT22;17114;52.314;8.910;2022-12-13T00:59:03;-7.20;99.90
30308;DHT22;17114;52.314;8.910;2022-12-13T01:01:32;-7.20;99.90
30308;DHT22;17114;52.314;8.910;2022-12-13T01:04:01;-7.20;99.90
30308;DHT22;17114;52.314;8.910;2022-12-13T01:06:49;-7.20;99.90
30308;DHT22;17114;52.314;8.910;2022-12-13T01:09:23;-7.30;99.90
30308;DHT22;17114;52.314;8.910;2022-12-13T01:12:01;-7.40;99.90
30308;DHT22;17114;52.314;8.910;2022-12-13T01:14:31;-7.30;99.90
30308;DHT22;17114;52.314;8.910;2022-12-13T01:17:00;-7.40;99.90
30308;DHT22;17114;52.314;8.910;2022-12-13T01:19:28;-7.40;99.90
30308;DHT22;17114;52.314;8.910;2022-12-13T01:22:02;-7.40;99.90
30308;DHT22;17114;52.314;8.910;2022-12-13T01:24:30;-7.30;99.90
30308;DHT22;17114;52.314;8.910;2022-12-13T01:26:58;-7.30;99.90
30308;DHT22;17114;52.314;8.910;2022-12-13T01:29:26;-7.40;99.90
30308;DHT22;17114;52.314;8.910;2022-12-13T01:31:53;-7.40;99.90
30308;DHT22;17114;52.314;8.910;2022-12-13T01:34:21;-7.40;99.90
30308;DHT22;17114;52.314;8.910;2022-12-13T01:36:53;-7.50;99.90
30308;DHT22;17114;52.314;8.910;2022-12-13T01:39:25;-7.50;99.90
30308;DHT22;17114;52.314;8.910;2022-12-13T01:41:54;-7.50;99.90
30308;DHT22;17114;52.314;8.910;2022-12-13T01:47:29;-7.50;99.90
30308;DHT22;17114;52.314;8.910;2022-12-13T01:50:04;-7.50;99.90
30308;DHT22;17114;52.314;8.910;2022-12-13T01:52:32;-7.50;99.90
30308;DHT22;17114;52.314;8.910;2022-12-13T01:55:02;-7.50;99.90
30308;DHT22;17114;52.314;8.910;2022-12-13T01:57:32;-7.50;99.90
30308;DHT22;17114;52.314;8.910;2022-12-13T01:59:59;-7.60;99.90
30308;DHT22;17114;52.314;8.910;2022-12-13T02:02:27;-7.60;99.90
30308;DHT22;17114;52.314;8.910;2022-12-13T02:05:15;-7.60;99.90
30308;DHT22;17114;52.314;8.910;2022-12-13T02:07:44;-7.60;99.90
30308;DHT22;17114;52.314;8.910;2022-12-13T02:10:13;-7.60;99.90
30308;DHT22;17114;52.314;8.910;2022-12-13T02:12:40;-7.70;99.90
30308;DHT22;17114;52.314;8.910;2022-12-13T02:15:12;-7.60;99.90
30308;DHT22;17114;52.314;8.910;2022-12-13T02:18:03;-7.60;99.90
30308;DHT22;17114;52.314;8.910;2022-12-13T02:35:14;-7.70;99.90
30308;DHT22;17114;52.314;8.910;2022-12-13T02:38:12;-7.70;99.90
30308;DHT22;17114;52.314;8.910;2022-12-13T02:40:54;-7.70;99.90
30308;DHT22;17114;52.314;8.910;2022-12-13T02:43:34;-7.70;99.90
30308;DHT22;17114;52.314;8.910;2022-12-13T02:46:11;-7.70;99.90
30308;DHT22;17114;52.314;8.910;2022-12-13T02:48:39;-7.70;99.90
30308;DHT22;17114;52.314;8.910;2022-12-13T02:51:09;-7.80;99.90
30308;DHT22;17114;52.314;8.910;2022-12-13T02:53:38;-7.70;99.90
30308;DHT22;17114;52.314;8.910;2022-12-13T02:56:06;-7.70;99.90
30308;DHT22;17114;52.314;8.910;2022-12-13T02:58:37;-7.70;99.90
30308;DHT22;17114;52.314;8.910;2022-12-13T03:07:14;-7.70;99.90
30308;DHT22;17114;52.314;8.910;2022-12-13T03:12:36;-7.70;99.90
30308;DHT22;17114;52.314;8.910;2022-12-13T03:15:26;-7.80;99.90
30308;DHT22;17114;52.314;8.910;2022-12-13T03:17:54;-7.80;99.90
30308;DHT22;17114;52.314;8.910;2022-12-13T03:20:25;-7.80;99.90
30308;DHT22;17114;52.314;8.910;2022-12-13T03:22:53;-7.80;99.90
30308;DHT22;17114;52.314;8.910;2022-12-13T03:25:21;-7.80;99.90
30308;DHT22;17114;52.314;8.910;2022-12-13T03:27:59;-7.80;99.90
30308;DHT22;17114;52.314;8.910;2022-12-13T03:30:29;-7.60;99.90
30308;DHT22;17114;52.314;8.910;2022-12-13T03:32:57;-7.50;99.90
30308;DHT22;17114;52.314;8.910;2022-12-13T03:35:24;-7.40;99.90
30308;DHT22;17114;52.314;8.910;2022-12-13T03:38:11;-7.20;99.90
30308;DHT22;17114;52.314;8.910;2022-12-13T03:40:48;-7.10;99.90
30308;DHT22;17114;52.314;8.910;2022-12-13T03:43:16;-6.90;99.90
30308;DHT22;17114;52.314;8.910;2022-12-13T03:45:48;-6.80;99.90
30308;DHT22;17114;52.314;8.910;2022-12-13T03:48:17;-6.70;99.90
30308;DHT22;17114;52.314;8.910;2022-12-13T03:50:49;-6.50;99.90
30308;DHT22;17114;52.314;8.910;2022-12-13T03:53:15;-6.40;99.90
30308;DHT22;17114;52.314;8.910;2022-12-13T03:55:58;-6.30;99.90
30308;DHT22;17114;52.314;8.910;2022-12-13T03:58:28;-6.10;99.90
30308;DHT22;17114;52.314;8.910;2022-12-13T04:01:08;-6.00;99.90
30308;DHT22;17114;52.314;8.910;2022-12-13T04:03:40;-5.90;99.90
30308;DHT22;17114;52.314;8.910;2022-12-13T04:06:07;-5.90;99.90
30308;DHT22;17114;52.314;8.910;2022-12-13T04:08:36;-5.90;99.90
30308;DHT22;17114;52.314;8.910;2022-12-13T04:11:03;-5.80;99.90
30308;DHT22;17114;52.314;8.910;2022-12-13T04:13:51;-5.80;99.90
30308;DHT22;17114;52.314;8.910;2022-12-13T04:16:18;-5.80;99.90
30308;DHT22;17114;52.314;8.910;2022-12-13T04:18:45;-5.80;99.90
30308;DHT22;17114;52.314;8.910;2022-12-13T04:21:12;-5.80;99.90
30308;DHT22;17114;52.314;8.910;2022-12-13T04:23:39;-5.80;99.90
30308;DHT22;17114;52.314;8.910;2022-12-13T04:26:06;-5.70;99.90
30308;DHT22;17114;52.314;8.910;2022-12-13T04:28:33;-5.70;99.90
30308;DHT22;17114;52.314;8.910;2022-12-13T04:30:59;-5.70;99.90
30308;DHT22;17114;52.314;8.910;2022-12-13T04:33:26;-5.70;99.90
30308;DHT22;17114;52.314;8.910;2022-12-13T04:35:53;-5.80;99.90
30308;DHT22;17114;52.314;8.910;2022-12-13T04:38:20;-5.80;99.90
30308;DHT22;17114;52.314;8.910;2022-12-13T04:40:47;-5.80;99.90
30308;DHT22;17114;52.314;8.910;2022-12-13T04:43:13;-5.80;99.90
30308;DHT22;17114;52.314;8.910;2022-12-13T04:45:40;-5.80;99.90
30308;DHT22;17114;52.314;8.910;2022-12-13T04:48:07;-5.80;99.90
30308;DHT22;17114;52.314;8.910;2022-12-13T04:50:35;-5.90;99.90
30308;DHT22;17114;52.314;8.910;2022-12-13T04:53:02;-6.00;99.90
30308;DHT22;17114;52.314;8.910;2022-12-13T04:55:32;-6.00;99.90
30308;DHT22;17114;52.314;8.910;2022-12-13T04:57:59;-6.00;99.90
30308;DHT22;17114;52.314;8.910;2022-12-13T05:00:25;-6.00;99.90
30308;DHT22;17114;52.314;8.910;2022-12-13T05:02:52;-6.00;99.90
30308;DHT22;17114;52.314;8.910;2022-12-13T05:05:19;-6.00;99.90
30308;DHT22;17114;52.314;8.910;2022-12-13T05:07:46;-5.90;99.90
30308;DHT22;17114;52.314;8.910;2022-12-13T05:10:13;-5.90;99.90
30308;DHT22;17114;52.314;8.910;2022-12-13T05:13:00;-5.90;99.90
30308;DHT22;17114;52.314;8.910;2022-12-13T05:15:28;-5.80;99.90
30308;DHT22;17114;52.314;8.910;2022-12-13T05:18:05;-5.80;99.90
30308;DHT22;17114;52.314;8.910;2022-12-13T05:20:37;-5.80;99.90
30308;DHT22;17114;52.314;8.910;2022-12-13T05:23:05;-5.80;99.90
30308;DHT22;17114;52.314;8.910;2022-12-13T05:25:32;-5.80;99.90
30308;DHT22;17114;52.314;8.910;2022-12-13T05:28:00;-5.80;99.90
30308;DHT22;17114;52.314;8.910;2022-12-13T05:30:46;-5.80;99.90
30308;DHT22;17114;52.314;8.910;2022-12-13T05:33:13;-5.80;99.90
30308;DHT22;17114;52.314;8.910;2022-12-13T05:35:40;-5.80;99.90
30308;DHT22;17114;52.314;8.910;2022-12-13T05:38:07;-5.80;99.90
30308;DHT22;17114;52.314;8.910;2022-12-13T05:40:33;-5.80;99.90
30308;DHT22;17114;52.314;8.910;2022-12-13T05:43:01;-5.80;99.90
30308;DHT22;17114;52.314;8.910;2022-12-13T05:45:29;-5.90;99.90
30308;DHT22;17114;52.314;8.910;2022-12-13T05:47:56;-5.90;99.90
30308;DHT22;17114;52.314;8.910;2022-12-13T05:50:24;-5.90;99.90
30308;DHT22;17114;52.314;8.910;2022-12-13T05:52:51;-6.00;99.90
30308;DHT22;17114;52.314;8.910;2022-12-13T05:55:18;-6.00;99.90
30308;DHT22;17114;52.314;8.910;2022-12-13T05:57:45;-6.00;99.90
30308;DHT22;17114;52.314;8.910;2022-12-13T06:00:17;-6.00;99.90
30308;DHT22;17114;52.314;8.910;2022-12-13T06:02:57;-6.00;99.90
30308;DHT22;17114;52.314;8.910;2022-12-13T06:05:28;-6.00;99.90
30308;DHT22;17114;52.314;8.910;2022-12-13T06:07:55;-6.10;99.90
30308;DHT22;17114;52.314;8.910;2022-12-13T06:10:24;-6.20;99.90
30308;DHT22;17114;52.314;8.910;2022-12-13T06:13:04;-6.20;99.90
30308;DHT22;17114;52.314;8.910;2022-12-13T06:15:51;-6.20;99.90
30308;DHT22;17114;52.314;8.910;2022-12-13T06:18:28;-6.20;99.90
30308;DHT22;17114;52.314;8.910;2022-12-13T06:20:58;-6.20;99.90
30308;DHT22;17114;52.314;8.910;2022-12-13T06:23:28;-6.20;99.90
30308;DHT22;17114;52.314;8.910;2022-12-13T06:25:56;-6.20;99.90
30308;DHT22;17114;52.314;8.910;2022-12-13T06:28:25;-6.20;99.90
30308;DHT22;17114;52.314;8.910;2022-12-13T06:30:52;-6.20;99.90
30308;DHT22;17114;52.314;8.910;2022-12-13T06:33:19;-6.20;99.90
30308;DHT22;17114;52.314;8.910;2022-12-13T06:35:49;-6.20;99.90
30308;DHT22;17114;52.314;8.910;2022-12-13T06:38:18;-6.20;99.90
30308;DHT22;17114;52.314;8.910;2022-12-13T06:41:14;-6.20;99.90
30308;DHT22;17114;52.314;8.910;2022-12-13T06:43:46;-6.20;99.90
30308;DHT22;17114;52.314;8.910;2022-12-13T06:46:14;-6.20;99.90
30308;DHT22;17114;52.314;8.910;2022-12-13T06:48:41;-6.10;99.90
30308;DHT22;17114;52.314;8.910;2022-12-13T06:51:08;-6.20;99.90
30308;DHT22;17114;52.314;8.910;2022-12-13T06:53:38;-6.20;99.90
30308;DHT22;17114;52.314;8.910;2022-12-13T06:56:08;-6.10;99.90
30308;DHT22;17114;52.314;8.910;2022-12-13T06:58:35;-6.10;99.90
30308;DHT22;17114;52.314;8.910;2022-12-13T07:01:05;-6.10;99.90
30308;DHT22;17114;52.314;8.910;2022-12-13T07:03:50;-6.20;99.90
30308;DHT22;17114;52.314;8.910;2022-12-13T07:06:19;-6.10;99.90
30308;DHT22;17114;52.314;8.910;2022-12-13T07:08:54;-6.10;99.90
30308;DHT22;17114;52.314;8.910;2022-12-13T07:11:24;-6.10;99.90
30308;DHT22;17114;52.314;8.910;2022-12-13T07:13:52;-6.10;99.90
30308;DHT22;17114;52.314;8.910;2022-12-13T07:16:20;-6.10;99.90
30308;DHT22;17114;52.314;8.910;2022-12-13T07:18:47;-6.00;99.90
30308;DHT22;17114;52.314;8.910;2022-12-13T07:21:27;-6.00;99.90
30308;DHT22;17114;52.314;8.910;2022-12-13T07:23:54;-6.00;99.90
30308;DHT22;17114;52.314;8.910;2022-12-13T07:26:21;-6.10;99.90
30308;DHT22;17114;52.314;8.910;2022-12-13T07:28:48;-6.00;99.90
30308;DHT22;17114;52.314;8.910;2022-12-13T07:31:21;-6.00;99.90
30308;DHT22;17114;52.314;8.910;2022-12-13T07:33:50;-6.00;99.90
30308;DHT22;17114;52.314;8.910;2022-12-13T07:36:21;-6.00;99.90
30308;DHT22;17114;52.314;8.910;2022-12-13T07:38:54;-6.10;99.90
30308;DHT22;17114;52.314;8.910;2022-12-13T07:41:23;-6.10;99.90
30308;DHT22;17114;52.314;8.910;2022-12-13T07:43:51;-6.10;99.90
30308;DHT22;17114;52.314;8.910;2022-12-13T07:46:22;-6.00;99.90
30308;DHT22;17114;52.314;8.910;2022-12-13T07:49:03;-6.00;99.90
30308;DHT22;17114;52.314;8.910;2022-12-13T07:51:32;-6.00;99.90
30308;DHT22;17114;52.314;8.910;2022-12-13T07:54:00;-5.90;99.90
30308;DHT22;17114;52.314;8.910;2022-12-13T07:56:33;-5.90;99.90
30308;DHT22;17114;52.314;8.910;2022-12-13T07:58:59;-5.90;99.90
30308;DHT22;17114;52.314;8.910;2022-12-13T08:01:26;-5.80;99.90
30308;DHT22;17114;52.314;8.910;2022-12-13T08:03:54;-5.70;99.90
30308;DHT22;17114;52.314;8.910;2022-12-13T08:06:20;-5.70;99.90
30308;DHT22;17114;52.314;8.910;2022-12-13T08:08:47;-5.70;99.90
30308;DHT22;17114;52.314;8.910;2022-12-13T08:11:16;-5.60;99.90
30308;DHT22;17114;52.314;8.910;2022-12-13T08:13:43;-5.60;99.90
30308;DHT22;17114;52.314;8.910;2022-12-13T08:16:11;-5.60;99.90
30308;DHT22;17114;52.314;8.910;2022-12-13T08:18:58;-5.50;99.90
30308;DHT22;17114;52.314;8.910;2022-12-13T08:21:38;-5.50;99.90
30308;DHT22;17114;52.314;8.910;2022-12-13T08:24:27;-5.40;99.90
30308;DHT22;17114;52.314;8.910;2022-12-13T08:26:58;-5.40;99.90
30308;DHT22;17114;52.314;8.910;2022-12-13T08:29:28;-5.40;99.90
30308;DHT22;17114;52.314;8.910;2022-12-13T08:32:06;-5.30;99.90
30308;DHT22;17114;52.314;8.910;2022-12-13T08:34:33;-5.30;99.90
30308;DHT22;17114;52.314;8.910;2022-12-13T08:37:00;-5.30;99.90
30308;DHT22;17114;52.314;8.910;2022-12-13T08:39:35;-5.20;99.90
30308;DHT22;17114;52.314;8.910;2022-12-13T08:42:09;-5.20;99.90
30308;DHT22;17114;52.314;8.910;2022-12-13T08:44:52;-5.10;99.90
30308;DHT22;17114;52.314;8.910;2022-12-13T08:47:21;-5.10;99.90
30308;DHT22;17114;52.314;8.910;2022-12-13T08:49:56;-5.00;99.90
30308;DHT22;17114;52.314;8.910;2022-12-13T08:52:34;-5.00;99.90
30308;DHT22;17114;52.314;8.910;2022-12-13T08:55:05;-4.90;99.90
30308;DHT22;17114;52.314;8.910;2022-12-13T08:57:35;-4.80;99.90
30308;DHT22;17114;52.314;8.910;2022-12-13T09:00:07;-4.80;99.90
30308;DHT22;17114;52.314;8.910;2022-12-13T09:02:34;-4.70;99.90
30308;DHT22;17114;52.314;8.910;2022-12-13T09:05:04;-4.70;99.90
30308;DHT22;17114;52.314;8.910;2022-12-13T09:07:32;-4.60;99.90
30308;DHT22;17114;52.314;8.910;2022-12-13T09:10:02;-4.50;99.90
30308;DHT22;17114;52.314;8.910;2022-12-13T09:12:49;-4.40;99.90
30308;DHT22;17114;52.314;8.910;2022-12-13T09:15:16;-4.20;99.90
30308;DHT22;17114;52.314;8.910;2022-12-13T09:17:48;-4.10;99.90
30308;DHT22;17114;52.314;8.910;2022-12-13T09:20:18;-3.90;99.90
30308;DHT22;17114;52.314;8.910;2022-12-13T09:22:55;-3.80;99.90
30308;DHT22;17114;52.314;8.910;2022-12-13T09:25:28;-3.60;99.90
30308;DHT22;17114;52.314;8.910;2022-12-13T09:28:04;-3.40;99.90
30308;DHT22;17114;52.314;8.910;2022-12-13T09:30:31;-3.20;99.90
30308;DHT22;17114;52.314;8.910;2022-12-13T09:32:58;-3.10;99.90
30308;DHT22;17114;52.314;8.910;2022-12-13T09:35:45;-2.90;99.90
30308;DHT22;17114;52.314;8.910;2022-12-13T09:38:12;-2.80;99.90
30308;DHT22;17114;52.314;8.910;2022-12-13T09:40:40;-2.60;99.90
30308;DHT22;17114;52.314;8.910;2022-12-13T09:43:13;-2.40;99.90
30308;DHT22;17114;52.314;8.910;2022-12-13T09:45:50;-2.10;99.90
30308;DHT22;17114;52.314;8.910;2022-12-13T09:48:27;-2.00;99.90
30308;DHT22;17114;52.314;8.910;2022-12-13T09:51:00;-1.80;99.90
30308;DHT22;17114;52.314;8.910;2022-12-13T09:53:49;-1.60;99.90
30308;DHT22;17114;52.314;8.910;2022-12-13T09:56:19;-1.70;99.90
30308;DHT22;17114;52.314;8.910;2022-12-13T09:58:53;-1.60;99.90
30308;DHT22;17114;52.314;8.910;2022-12-13T10:01:22;-1.60;99.90
30308;DHT22;17114;52.314;8.910;2022-12-13T10:03:51;-1.50;99.90
30308;DHT22;17114;52.314;8.910;2022-12-13T10:06:21;-1.40;99.90
30308;DHT22;17114;52.314;8.910;2022-12-13T10:08:53;-1.30;99.90
30308;DHT22;17114;52.314;8.910;2022-12-13T10:11:24;-1.10;99.90
30308;DHT22;17114;52.314;8.910;2022-12-13T10:14:08;-1.00;99.90
30308;DHT22;17114;52.314;8.910;2022-12-13T10:16:50;-0.60;99.90
30308;DHT22;17114;52.314;8.910;2022-12-13T10:19:42;-0.60;99.90
30308;DHT22;17114;52.314;8.910;2022-12-13T10:22:14;-0.60;99.90
30308;DHT22;17114;52.314;8.910;2022-12-13T10:24:56;-0.50;99.90
30308;DHT22;17114;52.314;8.910;2022-12-13T10:27:36;-0.30;99.90
30308;DHT22;17114;52.314;8.910;2022-12-13T10:30:11;-0.20;99.90
30308;DHT22;17114;52.314;8.910;2022-12-13T10:37:52;-0.30;99.90
30308;DHT22;17114;52.314;8.910;2022-12-13T10:40:40;-0.30;99.90
30308;DHT22;17114;52.314;8.910;2022-12-13T10:43:18;-0.50;99.90
30308;DHT22;17114;52.314;8.910;2022-12-13T10:48:21;-0.40;99.90
30308;DHT22;17114;52.314;8.910;2022-12-13T10:51:12;-0.40;99.90
30308;DHT22;17114;52.314;8.910;2022-12-13T10:53:44;-0.30;99.90
30308;DHT22;17114;52.314;8.910;2022-12-13T10:56:17;-0.20;99.90
30308;DHT22;17114;52.314;8.910;2022-12-13T10:58:51;-0.30;99.90
30308;DHT22;17114;52.314;8.910;2022-12-13T11:01:43;-0.10;99.90
30308;DHT22;17114;52.314;8.910;2022-12-13T11:04:29;0.10;99.90
30308;DHT22;17114;52.314;8.910;2022-12-13T11:07:29;0.30;99.90
30308;DHT22;17114;52.314;8.910;2022-12-13T11:09:58;0.40;99.90
30308;DHT22;17114;52.314;8.910;2022-12-13T11:12:41;0.40;99.90
30308;DHT22;17114;52.314;8.910;2022-12-13T11:15:16;0.40;99.90
30308;DHT22;17114;52.314;8.910;2022-12-13T11:18:04;0.20;99.90
30308;DHT22;17114;52.314;8.910;2022-12-13T11:21:04;0.30;99.90
30308;DHT22;17114;52.314;8.910;2022-12-13T11:23:43;0.10;99.90
30308;DHT22;17114;52.314;8.910;2022-12-13T11:26:17;-0.10;99.90
30308;DHT22;17114;52.314;8.910;2022-12-13T11:35:01;-0.50;99.90
30308;DHT22;17114;52.314;8.910;2022-12-13T11:40:31;-0.70;99.90
30308;DHT22;17114;52.314;8.910;2022-12-13T11:43:24;-0.90;99.90
30308;DHT22;17114;52.314;8.910;2022-12-13T11:45:55;-0.90;99.90
30308;DHT22;17114;52.314;8.910;2022-12-13T11:48:43;-1.00;99.90
30308;DHT22;17114;52.314;8.910;2022-12-13T11:51:14;-1.00;99.90
30308;DHT22;17114;52.314;8.910;2022-12-13T11:54:00;-1.20;99.90
30308;DHT22;17114;52.314;8.910;2022-12-13T11:56:37;-1.30;99.90
30308;DHT22;17114;52.314;8.910;2022-12-13T12:02:27;-1.40;99.90
30308;DHT22;17114;52.314;8.910;2022-12-13T12:04:56;-1.40;99.90
30308;DHT22;17114;52.314;8.910;2022-12-13T12:07:35;-1.50;99.90
30308;DHT22;17114;52.314;8.910;2022-12-13T12:12:47;-1.60;99.90
30308;DHT22;17114;52.314;8.910;2022-12-13T12:15:16;-1.60;99.90
30308;DHT22;17114;52.314;8.910;2022-12-13T12:17:56;-1.60;99.90
30308;DHT22;17114;52.314;8.910;2022-12-13T12:20:46;-1.60;99.90
30308;DHT22;17114;52.314;8.910;2022-12-13T12:25:56;-1.60;99.90
30308;DHT22;17114;52.314;8.910;2022-12-13T12:34:35;-1.60;99.90
30308;DHT22;17114;52.314;8.910;2022-12-13T12:40:14;-1.50;99.90
30308;DHT22;17114;52.314;8.910;2022-12-13T12:42:50;-1.50;99.90
30308;DHT22;17114;52.314;8.910;2022-12-13T12:46:02;-1.40;99.90
30308;DHT22;17114;52.314;8.910;2022-12-13T13:08:13;-1.40;99.90
30308;DHT22;17114;52.314;8.910;2022-12-13T13:10:42;-1.40;99.90
30308;DHT22;17114;52.314;8.910;2022-12-13T13:13:44;-1.50;99.90
30308;DHT22;17114;52.314;8.910;2022-12-13T13:16:38;-1.50;99.90
30308;DHT22;17114;52.314;8.910;2022-12-13T13:24:21;-1.50;99.90
30308;DHT22;17114;52.314;8.910;2022-12-13T13:26:51;-1.40;99.90
30308;DHT22;17114;52.314;8.910;2022-12-13T13:32:01;-1.50;99.90
30308;DHT22;17114;52.314;8.910;2022-12-13T13:34:42;-1.50;99.90
30308;DHT22;17114;52.314;8.910;2022-12-13T13:42:21;-1.50;99.90
30308;DHT22;17114;52.314;8.910;2022-12-13T13:53:19;-1.60;99.90
30308;DHT22;17114;52.314;8.910;2022-12-13T14:10:25;-1.60;99.90
30308;DHT22;17114;52.314;8.910;2022-12-13T14:21:35;-1.70;99.90
30308;DHT22;17114;52.314;8.910;2022-12-13T14:24:27;-1.80;99.90
30308;DHT22;17114;52.314;8.910;2022-12-13T14:27:17;-1.80;99.90
30308;DHT22;17114;52.314;8.910;2022-12-13T14:29:46;-1.80;99.90
30308;DHT22;17114;52.314;8.910;2022-12-13T14:32:29;-1.90;99.90
30308;DHT22;17114;52.314;8.910;2022-12-13T14:34:56;-1.90;99.90
30308;DHT22;17114;52.314;8.910;2022-12-13T14:39:57;-2.00;99.90
30308;DHT22;17114;52.314;8.910;2022-12-13T14:42:31;-2.10;99.90
30308;DHT22;17114;52.314;8.910;2022-12-13T14:45:20;-2.10;99.90
30308;DHT22;17114;52.314;8.910;2022-12-13T14:47:48;-2.20;99.90
30308;DHT22;17114;52.314;8.910;2022-12-13T14:50:16;-2.20;99.90
30308;DHT22;17114;52.314;8.910;2022-12-13T14:52:44;-2.30;99.90
30308;DHT22;17114;52.314;8.910;2022-12-13T14:57:54;-2.50;99.90
30308;DHT22;17114;52.314;8.910;2022-12-13T15:00:27;-2.50;99.90
30308;DHT22;17114;52.314;8.910;2022-12-13T15:02:57;-2.60;99.90
30308;DHT22;17114;52.314;8.910;2022-12-13T15:05:30;-2.70;99.90
30308;DHT22;17114;52.314;8.910;2022-12-13T15:07:58;-2.60;99.90
30308;DHT22;17114;52.314;8.910;2022-12-13T15:10:37;-2.70;99.90
30308;DHT22;17114;52.314;8.910;2022-12-13T15:13:06;-2.70;99.90
30308;DHT22;17114;52.314;8.910;2022-12-13T15:15:38;-2.90;99.90
30308;DHT22;17114;52.314;8.910;2022-12-13T15:20:39;-3.00;99.90
30308;DHT22;17114;52.314;8.910;2022-12-13T15:25:59;-3.10;99.90
30308;DHT22;17114;52.314;8.910;2022-12-13T15:28:30;-3.10;99.90
30308;DHT22;17114;52.314;8.910;2022-12-13T15:30:59;-3.20;99.90
30308;DHT22;17114;52.314;8.910;2022-12-13T15:33:28;-3.20;99.90
30308;DHT22;17114;52.314;8.910;2022-12-13T15:36:13;-3.20;99.90
30308;DHT22;17114;52.314;8.910;2022-12-13T15:41:35;-3.30;99.90
30308;DHT22;17114;52.314;8.910;2022-12-13T15:44:18;-3.30;99.90
30308;DHT22;17114;52.314;8.910;2022-12-13T15:46:48;-3.30;99.90
30308;DHT22;17114;52.314;8.910;2022-12-13T15:52:02;-3.20;99.90
30308;DHT22;17114;52.314;8.910;2022-12-13T15:54:30;-3.20;99.90
30308;DHT22;17114;52.314;8.910;2022-12-13T15:57:11;-3.20;99.90
30308;DHT22;17114;52.314;8.910;2022-12-13T15:59:42;-3.20;99.90
30308;DHT22;17114;52.314;8.910;2022-12-13T16:02:20;-3.30;99.90
30308;DHT22;17114;52.314;8.910;2022-12-13T16:04:48;-3.30;99.90
30308;DHT22;17114;52.314;8.910;2022-12-13T16:07:31;-3.30;99.90
30308;DHT22;17114;52.314;8.910;2022-12-13T16:10:00;-3.40;99.90
30308;DHT22;17114;52.314;8.910;2022-12-13T16:12:38;-3.40;99.90
30308;DHT22;17114;52.314;8.910;2022-12-13T16:15:18;-3.50;99.90
30308;DHT22;17114;52.314;8.910;2022-12-13T16:18:21;-3.60;99.90
30308;DHT22;17114;52.314;8.910;2022-12-13T16:20:53;-3.70;99.90
30308;DHT22;17114;52.314;8.910;2022-12-13T16:23:23;-3.70;99.90
30308;DHT22;17114;52.314;8.910;2022-12-13T16:25:53;-3.80;99.90
30308;DHT22;17114;52.314;8.910;2022-12-13T16:28:20;-4.00;99.90
30308;DHT22;17114;52.314;8.910;2022-12-13T16:33:23;-4.20;99.90
30308;DHT22;17114;52.314;8.910;2022-12-13T16:35:54;-4.20;99.90
30308;DHT22;17114;52.314;8.910;2022-12-13T16:38:21;-4.30;99.90
30308;DHT22;17114;52.314;8.910;2022-12-13T16:40:54;-4.30;99.90
30308;DHT22;17114;52.314;8.910;2022-12-13T16:43:24;-4.30;99.90
30308;DHT22;17114;52.314;8.910;2022-12-13T16:46:00;-4.40;99.90
30308;DHT22;17114;52.314;8.910;2022-12-13T16:48:49;-4.50;99.90
30308;DHT22;17114;52.314;8.910;2022-12-13T16:51:19;-4.60;99.90
30308;DHT22;17114;52.314;8.910;2022-12-13T16:53:46;-4.60;99.90
30308;DHT22;17114;52.314;8.910;2022-12-13T16:56:14;-4.70;99.90
30308;DHT22;17114;52.314;8.910;2022-12-13T16:58:48;-4.70;99.90
30308;DHT22;17114;52.314;8.910;2022-12-13T17:01:19;-4.80;99.90
30308;DHT22;17114;52.314;8.910;2022-12-13T17:03:47;-4.90;99.90
30308;DHT22;17114;52.314;8.910;2022-12-13T17:06:19;-4.90;99.90
30308;DHT22;17114;52.314;8.910;2022-12-13T17:08:47;-4.90;99.90
30308;DHT22;17114;52.314;8.910;2022-12-13T17:11:15;-5.00;99.90
30308;DHT22;17114;52.314;8.910;2022-12-13T17:13:44;-5.00;99.90
30308;DHT22;17114;52.314;8.910;2022-12-13T17:16:13;-5.00;99.90
30308;DHT22;17114;52.314;8.910;2022-12-13T17:18:41;-4.80;99.90
30308;DHT22;17114;52.314;8.910;2022-12-13T17:21:09;-5.00;99.90
30308;DHT22;17114;52.314;8.910;2022-12-13T17:23:36;-5.00;99.90
30308;DHT22;17114;52.314;8.910;2022-12-13T17:26:08;-5.00;99.90
30308;DHT22;17114;52.314;8.910;2022-12-13T17:28:36;-4.90;99.90
30308;DHT22;17114;52.314;8.910;2022-12-13T17:31:07;-4.90;99.90
30308;DHT22;17114;52.314;8.910;2022-12-13T17:33:35;-4.80;99.90
30308;DHT22;17114;52.314;8.910;2022-12-13T17:36:06;-4.80;99.90
30308;DHT22;17114;52.314;8.910;2022-12-13T17:38:34;-4.80;99.90
30308;DHT22;17114;52.314;8.910;2022-12-13T17:41:02;-4.90;99.90
30308;DHT22;17114;52.314;8.910;2022-12-13T17:43:29;-4.90;99.90
30308;DHT22;17114;52.314;8.910;2022-12-13T17:46:06;-5.00;99.90
30308;DHT22;17114;52.314;8.910;2022-12-13T17:48:34;-5.00;99.90
30308;DHT22;17114;52.314;8.910;2022-12-13T17:51:08;-4.90;99.90
30308;DHT22;17114;52.314;8.910;2022-12-13T17:53:37;-5.10;99.90
30308;DHT22;17114;52.314;8.910;2022-12-13T17:56:06;-5.20;99.90
30308;DHT22;17114;52.314;8.910;2022-12-13T17:58:34;-5.10;99.90
30308;DHT22;17114;52.314;8.910;2022-12-13T18:01:16;-5.10;99.90
30308;DHT22;17114;52.314;8.910;2022-12-13T18:03:43;-5.00;99.90
30308;DHT22;17114;52.314;8.910;2022-12-13T18:06:11;-5.10;99.90
30308;DHT22;17114;52.314;8.910;2022-12-13T18:08:40;-5.20;99.90
30308;DHT22;17114;52.314;8.910;2022-12-13T18:11:08;-5.20;99.90
30308;DHT22;17114;52.314;8.910;2022-12-13T18:13:55;-5.00;99.90
30308;DHT22;17114;52.314;8.910;2022-12-13T18:16:24;-5.10;99.90
30308;DHT22;17114;52.314;8.910;2022-12-13T18:19:03;-5.20;99.90
30308;DHT22;17114;52.314;8.910;2022-12-13T18:21:32;-5.20;99.90
30308;DHT22;17114;52.314;8.910;2022-12-13T18:23:59;-5.30;99.90
30308;DHT22;17114;52.314;8.910;2022-12-13T18:26:26;-5.30;99.90
30308;DHT22;17114;52.314;8.910;2022-12-13T18:28:53;-5.40;99.90